Airfield :
LOGIN :

Register | Disclaimer

   EN    FR    IT 

 










Legend :    VFR   Marginal VFR   IFR   Intensive IFR   Very Intensive IFR
Visi :
Ceiling :
>= 8 km
>= 3000ft
5 to 8 km
1000 to 3000 ft
1500m to 5 km
500 to 1000 ft
800 to 1500m
200 to 500 ft
< 800m
< 200 ft
Symbols :   Thunderstorms  Fog  Heavy snow  Heavy precipitations  Wind > 20 kt
SIGMETs :     Misc.  Thunderstorms  Icing  Turbulence  Mountain Waves  Volcanic Ashes






- Airport Elevation : 604 ft
- IATA code : LCJ


EPLL - Lodz

CURRENT METAR :
  • 241900Z VRB03KT 9999 -SHRA BKN020CB 17/13 Q1010

EXPIRED METARs :
  • 241830Z 09004KT 060V130 9999 SCT028 BKN032CB 17/12 Q1009
  • 241800Z 10005KT 060V160 9999 FEW035 SCT042CB 17/12 Q1009
  • 241730Z 11005KT 070V150 CAVOK 18/12 Q1008
  • 241700Z 11005KT 080V140 9999 SCT039 18/12 Q1008
  • 241630Z 11007KT 060V170 CAVOK 18/12 Q1008

TAF TAF EPLL
Valid from the 24 at 18:00 until the 25 at 18:00 UTC


241730Z 2418/2518 13010KT 9999 BKN045
BECMG 2418/2421 VRB03KT
TEMPO 2418/2423 SHRA BKN030CB
PROB40
TEMPO 2418/2421 VRB15G25KT 3000 TSRA BKN009 BKN014CB
TEMPO 2423/2506 3000 RA BR BKN007 BKN014
PROB40
TEMPO 2509/2517 -SHRA BKN014TCU



MET'MAP, your aeronautical weather chart ! - Copyright ORBIFLY December 2007 - Disclaimer

ORBIFLY MET'MAP TEAM :

Programming & Development : Alexandra Zaïnal
Original concept : Baudouin d'Aumeries
Technical & hardware support : Manuel Goepfert
Assistance : Marc-Olivier Méhu

Contact : metmap@orbifly.com




SOURCES & CREDITS :

   NOAA